sensor_id;sensor_type;location;lat;lon;timestamp;P1;durP1;ratioP1;P2;durP2;ratioP2
19191;SDS011;9728;48.194;16.346;2023-09-30T00:03:34;3.00;;;2.55;;
19191;SDS011;9728;48.194;16.346;2023-09-30T00:08:38;7.25;;;2.88;;
19191;SDS011;9728;48.194;16.346;2023-09-30T00:13:43;3.38;;;2.38;;
19191;SDS011;9728;48.194;16.346;2023-09-30T00:18:48;3.47;;;2.38;;
19191;SDS011;9728;48.194;16.346;2023-09-30T00:23:52;3.40;;;2.42;;
19191;SDS011;9728;48.194;16.346;2023-09-30T00:28:56;3.47;;;2.22;;
19191;SDS011;9728;48.194;16.346;2023-09-30T00:34:01;3.10;;;2.67;;
19191;SDS011;9728;48.194;16.346;2023-09-30T00:39:04;3.42;;;2.20;;
19191;SDS011;9728;48.194;16.346;2023-09-30T00:44:09;3.60;;;2.92;;
19191;SDS011;9728;48.194;16.346;2023-09-30T00:49:14;3.25;;;2.47;;
19191;SDS011;9728;48.194;16.346;2023-09-30T00:54:20;3.42;;;2.50;;
19191;SDS011;9728;48.194;16.346;2023-09-30T00:59:24;3.25;;;2.42;;
19191;SDS011;9728;48.194;16.346;2023-09-30T01:04:29;2.83;;;2.40;;
19191;SDS011;9728;48.194;16.346;2023-09-30T01:09:33;2.70;;;2.30;;
19191;SDS011;9728;48.194;16.346;2023-09-30T01:14:38;4.63;;;2.50;;
19191;SDS011;9728;48.194;16.346;2023-09-30T01:19:44;3.03;;;2.33;;
19191;SDS011;9728;48.194;16.346;2023-09-30T01:24:50;3.38;;;2.28;;
19191;SDS011;9728;48.194;16.346;2023-09-30T01:29:53;3.88;;;2.20;;
19191;SDS011;9728;48.194;16.346;2023-09-30T01:34:57;4.45;;;2.60;;
19191;SDS011;9728;48.194;16.346;2023-09-30T01:40:02;2.50;;;2.17;;
19191;SDS011;9728;48.194;16.346;2023-09-30T01:45:10;3.08;;;2.38;;
19191;SDS011;9728;48.194;16.346;2023-09-30T01:50:13;4.82;;;3.05;;
19191;SDS011;9728;48.194;16.346;2023-09-30T01:55:19;3.10;;;2.30;;
19191;SDS011;9728;48.194;16.346;2023-09-30T02:00:22;2.53;;;2.22;;
19191;SDS011;9728;48.194;16.346;2023-09-30T02:05:27;3.20;;;2.28;;
19191;SDS011;9728;48.194;16.346;2023-09-30T02:10:32;3.30;;;2.33;;
19191;SDS011;9728;48.194;16.346;2023-09-30T02:15:39;2.55;;;2.20;;
19191;SDS011;9728;48.194;16.346;2023-09-30T02:20:43;2.30;;;2.10;;
19191;SDS011;9728;48.194;16.346;2023-09-30T02:25:48;3.20;;;2.47;;
19191;SDS011;9728;48.194;16.346;2023-09-30T02:30:51;2.17;;;1.98;;
19191;SDS011;9728;48.194;16.346;2023-09-30T02:35:55;2.40;;;2.20;;
19191;SDS011;9728;48.194;16.346;2023-09-30T02:41:00;2.90;;;2.35;;
19191;SDS011;9728;48.194;16.346;2023-09-30T02:46:04;2.42;;;2.20;;
19191;SDS011;9728;48.194;16.346;2023-09-30T02:51:09;2.47;;;2.10;;
19191;SDS011;9728;48.194;16.346;2023-09-30T02:56:15;2.75;;;1.98;;
19191;SDS011;9728;48.194;16.346;2023-09-30T03:01:19;3.15;;;2.40;;
19191;SDS011;9728;48.194;16.346;2023-09-30T03:06:23;2.20;;;2.00;;
19191;SDS011;9728;48.194;16.346;2023-09-30T03:11:28;2.70;;;2.00;;
19191;SDS011;9728;48.194;16.346;2023-09-30T03:16:32;3.35;;;2.00;;
19191;SDS011;9728;48.194;16.346;2023-09-30T03:21:36;1.90;;;1.70;;
19191;SDS011;9728;48.194;16.346;2023-09-30T03:26:42;2.40;;;1.92;;
19191;SDS011;9728;48.194;16.346;2023-09-30T03:31:46;2.53;;;2.00;;
19191;SDS011;9728;48.194;16.346;2023-09-30T03:36:49;2.05;;;1.85;;
19191;SDS011;9728;48.194;16.346;2023-09-30T03:41:55;2.50;;;2.00;;
19191;SDS011;9728;48.194;16.346;2023-09-30T03:46:59;2.88;;;2.05;;
19191;SDS011;9728;48.194;16.346;2023-09-30T03:52:03;2.70;;;2.10;;
19191;SDS011;9728;48.194;16.346;2023-09-30T03:57:09;2.60;;;1.95;;
19191;SDS011;9728;48.194;16.346;2023-09-30T04:02:14;3.03;;;2.58;;
19191;SDS011;9728;48.194;16.346;2023-09-30T04:07:17;2.95;;;2.17;;
19191;SDS011;9728;48.194;16.346;2023-09-30T04:12:22;2.97;;;2.13;;
19191;SDS011;9728;48.194;16.346;2023-09-30T04:17:27;3.00;;;2.17;;
19191;SDS011;9728;48.194;16.346;2023-09-30T04:22:31;3.58;;;2.63;;
19191;SDS011;9728;48.194;16.346;2023-09-30T04:27:36;4.55;;;2.60;;
19191;SDS011;9728;48.194;16.346;2023-09-30T04:32:39;5.15;;;2.38;;
19191;SDS011;9728;48.194;16.346;2023-09-30T04:37:43;4.97;;;2.70;;
19191;SDS011;9728;48.194;16.346;2023-09-30T04:42:49;3.75;;;2.47;;
19191;SDS011;9728;48.194;16.346;2023-09-30T04:47:52;4.68;;;2.75;;
19191;SDS011;9728;48.194;16.346;2023-09-30T04:52:57;5.57;;;2.92;;
19191;SDS011;9728;48.194;16.346;2023-09-30T04:58:03;6.38;;;2.92;;
19191;SDS011;9728;48.194;16.346;2023-09-30T05:03:07;5.50;;;3.13;;
19191;SDS011;9728;48.194;16.346;2023-09-30T05:08:11;6.95;;;3.05;;
19191;SDS011;9728;48.194;16.346;2023-09-30T05:13:17;4.85;;;3.05;;
19191;SDS011;9728;48.194;16.346;2023-09-30T05:18:20;6.22;;;2.97;;
19191;SDS011;9728;48.194;16.346;2023-09-30T05:23:25;5.80;;;3.10;;
19191;SDS011;9728;48.194;16.346;2023-09-30T05:28:31;5.55;;;3.08;;
19191;SDS011;9728;48.194;16.346;2023-09-30T05:33:36;7.35;;;3.25;;
19191;SDS011;9728;48.194;16.346;2023-09-30T05:38:39;5.68;;;3.00;;
19191;SDS011;9728;48.194;16.346;2023-09-30T05:43:44;7.60;;;3.60;;
19191;SDS011;9728;48.194;16.346;2023-09-30T05:48:48;8.13;;;3.20;;
19191;SDS011;9728;48.194;16.346;2023-09-30T05:53:52;7.47;;;3.47;;
19191;SDS011;9728;48.194;16.346;2023-09-30T05:58:57;7.47;;;3.05;;
19191;SDS011;9728;48.194;16.346;2023-09-30T06:04:01;9.25;;;3.83;;
19191;SDS011;9728;48.194;16.346;2023-09-30T06:09:06;8.65;;;3.70;;
19191;SDS011;9728;48.194;16.346;2023-09-30T06:14:11;11.00;;;4.28;;
19191;SDS011;9728;48.194;16.346;2023-09-30T06:19:15;10.85;;;3.92;;
19191;SDS011;9728;48.194;16.346;2023-09-30T06:24:19;7.18;;;3.40;;
19191;SDS011;9728;48.194;16.346;2023-09-30T06:29:24;9.13;;;3.70;;
19191;SDS011;9728;48.194;16.346;2023-09-30T06:34:28;7.70;;;3.38;;
19191;SDS011;9728;48.194;16.346;2023-09-30T06:39:32;7.78;;;3.28;;
19191;SDS011;9728;48.194;16.346;2023-09-30T06:44:37;10.73;;;3.22;;
19191;SDS011;9728;48.194;16.346;2023-09-30T06:49:40;7.82;;;3.78;;
19191;SDS011;9728;48.194;16.346;2023-09-30T06:54:44;7.57;;;3.63;;
19191;SDS011;9728;48.194;16.346;2023-09-30T06:59:49;8.43;;;3.90;;
19191;SDS011;9728;48.194;16.346;2023-09-30T07:04:52;7.40;;;3.42;;
19191;SDS011;9728;48.194;16.346;2023-09-30T07:09:56;11.38;;;3.97;;
19191;SDS011;9728;48.194;16.346;2023-09-30T07:15:01;7.50;;;3.03;;
19191;SDS011;9728;48.194;16.346;2023-09-30T07:20:05;8.98;;;3.60;;
19191;SDS011;9728;48.194;16.346;2023-09-30T07:25:11;7.75;;;3.67;;
19191;SDS011;9728;48.194;16.346;2023-09-30T07:30:17;10.18;;;3.80;;
19191;SDS011;9728;48.194;16.346;2023-09-30T07:35:23;7.65;;;3.70;;
19191;SDS011;9728;48.194;16.346;2023-09-30T07:40:26;7.28;;;3.25;;
19191;SDS011;9728;48.194;16.346;2023-09-30T07:45:31;9.80;;;4.00;;
19191;SDS011;9728;48.194;16.346;2023-09-30T07:50:35;8.13;;;3.60;;
19191;SDS011;9728;48.194;16.346;2023-09-30T07:55:38;7.05;;;2.90;;
19191;SDS011;9728;48.194;16.346;2023-09-30T08:00:43;8.70;;;3.92;;
19191;SDS011;9728;48.194;16.346;2023-09-30T08:05:50;8.43;;;4.13;;
19191;SDS011;9728;48.194;16.346;2023-09-30T08:10:53;11.00;;;4.45;;
19191;SDS011;9728;48.194;16.346;2023-09-30T08:15:59;9.55;;;4.07;;
19191;SDS011;9728;48.194;16.346;2023-09-30T08:21:02;8.20;;;3.17;;
19191;SDS011;9728;48.194;16.346;2023-09-30T08:26:06;10.10;;;3.58;;
19191;SDS011;9728;48.194;16.346;2023-09-30T08:31:11;10.35;;;4.30;;
19191;SDS011;9728;48.194;16.346;2023-09-30T08:36:16;9.18;;;3.40;;
19191;SDS011;9728;48.194;16.346;2023-09-30T08:41:24;6.50;;;2.95;;
19191;SDS011;9728;48.194;16.346;2023-09-30T08:46:36;8.70;;;3.53;;
19191;SDS011;9728;48.194;16.346;2023-09-30T08:51:40;9.32;;;3.45;;
19191;SDS011;9728;48.194;16.346;2023-09-30T08:56:44;8.13;;;3.30;;
19191;SDS011;9728;48.194;16.346;2023-09-30T09:01:53;6.78;;;3.10;;
19191;SDS011;9728;48.194;16.346;2023-09-30T09:06:57;6.22;;;2.75;;
19191;SDS011;9728;48.194;16.346;2023-09-30T09:12:01;8.15;;;3.67;;
19191;SDS011;9728;48.194;16.346;2023-09-30T09:17:06;9.15;;;3.55;;
19191;SDS011;9728;48.194;16.346;2023-09-30T09:22:10;9.45;;;3.58;;
19191;SDS011;9728;48.194;16.346;2023-09-30T09:27:13;6.85;;;3.15;;
19191;SDS011;9728;48.194;16.346;2023-09-30T09:32:20;8.98;;;2.97;;
19191;SDS011;9728;48.194;16.346;2023-09-30T09:37:24;6.95;;;2.85;;
19191;SDS011;9728;48.194;16.346;2023-09-30T09:42:29;9.70;;;3.58;;
19191;SDS011;9728;48.194;16.346;2023-09-30T09:47:39;8.60;;;3.58;;
19191;SDS011;9728;48.194;16.346;2023-09-30T09:52:43;7.75;;;3.55;;
19191;SDS011;9728;48.194;16.346;2023-09-30T09:57:51;8.27;;;3.40;;
19191;SDS011;9728;48.194;16.346;2023-09-30T10:02:56;8.43;;;3.15;;
19191;SDS011;9728;48.194;16.346;2023-09-30T10:08:01;11.57;;;3.88;;
19191;SDS011;9728;48.194;16.346;2023-09-30T10:13:12;6.60;;;2.97;;
19191;SDS011;9728;48.194;16.346;2023-09-30T10:19:09;6.60;;;2.85;;
19191;SDS011;9728;48.194;16.346;2023-09-30T10:24:28;7.35;;;3.25;;
19191;SDS011;9728;48.194;16.346;2023-09-30T10:29:39;7.13;;;3.30;;
19191;SDS011;9728;48.194;16.346;2023-09-30T10:34:49;8.45;;;3.65;;
19191;SDS011;9728;48.194;16.346;2023-09-30T10:39:54;6.85;;;2.80;;
19191;SDS011;9728;48.194;16.346;2023-09-30T10:45:00;7.90;;;2.55;;
19191;SDS011;9728;48.194;16.346;2023-09-30T10:50:48;6.95;;;2.90;;
19191;SDS011;9728;48.194;16.346;2023-09-30T10:56:02;7.38;;;2.85;;
19191;SDS011;9728;48.194;16.346;2023-09-30T11:01:06;6.68;;;3.17;;
19191;SDS011;9728;48.194;16.346;2023-09-30T11:06:12;7.45;;;3.42;;
19191;SDS011;9728;48.194;16.346;2023-09-30T11:11:21;7.30;;;3.20;;
19191;SDS011;9728;48.194;16.346;2023-09-30T11:16:42;5.28;;;2.58;;
19191;SDS011;9728;48.194;16.346;2023-09-30T11:21:47;6.88;;;2.85;;
19191;SDS011;9728;48.194;16.346;2023-09-30T11:26:53;6.47;;;2.70;;
19191;SDS011;9728;48.194;16.346;2023-09-30T11:31:57;6.28;;;2.97;;
19191;SDS011;9728;48.194;16.346;2023-09-30T11:37:02;8.00;;;2.90;;
19191;SDS011;9728;48.194;16.346;2023-09-30T11:42:14;6.95;;;2.90;;
19191;SDS011;9728;48.194;16.346;2023-09-30T11:47:27;7.72;;;3.38;;
19191;SDS011;9728;48.194;16.346;2023-09-30T11:52:34;7.65;;;3.60;;
19191;SDS011;9728;48.194;16.346;2023-09-30T11:57:41;6.00;;;3.00;;
19191;SDS011;9728;48.194;16.346;2023-09-30T12:02:45;7.18;;;2.75;;
19191;SDS011;9728;48.194;16.346;2023-09-30T12:07:49;6.90;;;3.08;;
19191;SDS011;9728;48.194;16.346;2023-09-30T12:12:53;6.60;;;2.92;;
19191;SDS011;9728;48.194;16.346;2023-09-30T12:17:57;6.85;;;3.47;;
19191;SDS011;9728;48.194;16.346;2023-09-30T12:23:02;7.80;;;2.75;;
19191;SDS011;9728;48.194;16.346;2023-09-30T12:28:06;8.30;;;3.17;;
19191;SDS011;9728;48.194;16.346;2023-09-30T12:33:10;5.82;;;2.85;;
19191;SDS011;9728;48.194;16.346;2023-09-30T12:38:15;6.28;;;2.67;;
19191;SDS011;9728;48.194;16.346;2023-09-30T12:43:18;4.95;;;2.30;;
19191;SDS011;9728;48.194;16.346;2023-09-30T12:48:22;6.80;;;2.30;;
19191;SDS011;9728;48.194;16.346;2023-09-30T12:53:27;4.82;;;2.22;;
19191;SDS011;9728;48.194;16.346;2023-09-30T12:58:31;6.82;;;2.70;;
19191;SDS011;9728;48.194;16.346;2023-09-30T13:03:35;6.97;;;2.67;;
19191;SDS011;9728;48.194;16.346;2023-09-30T13:08:40;6.05;;;2.63;;
19191;SDS011;9728;48.194;16.346;2023-09-30T13:13:43;6.78;;;2.70;;
19191;SDS011;9728;48.194;16.346;2023-09-30T13:18:47;6.10;;;2.15;;
19191;SDS011;9728;48.194;16.346;2023-09-30T13:23:53;5.55;;;2.00;;
19191;SDS011;9728;48.194;16.346;2023-09-30T13:28:56;4.68;;;2.10;;
19191;SDS011;9728;48.194;16.346;2023-09-30T13:34:00;5.53;;;2.70;;
19191;SDS011;9728;48.194;16.346;2023-09-30T13:39:06;5.35;;;2.25;;
19191;SDS011;9728;48.194;16.346;2023-09-30T13:44:14;6.40;;;2.58;;
19191;SDS011;9728;48.194;16.346;2023-09-30T13:49:18;6.68;;;2.75;;
19191;SDS011;9728;48.194;16.346;2023-09-30T13:54:24;5.35;;;2.33;;
19191;SDS011;9728;48.194;16.346;2023-09-30T13:59:27;7.45;;;2.78;;
19191;SDS011;9728;48.194;16.346;2023-09-30T14:04:31;6.47;;;2.70;;
19191;SDS011;9728;48.194;16.346;2023-09-30T14:09:36;4.70;;;2.25;;
19191;SDS011;9728;48.194;16.346;2023-09-30T14:14:40;6.38;;;2.88;;
19191;SDS011;9728;48.194;16.346;2023-09-30T14:19:44;7.72;;;3.00;;
19191;SDS011;9728;48.194;16.346;2023-09-30T14:24:48;6.50;;;2.95;;
19191;SDS011;9728;48.194;16.346;2023-09-30T14:29:52;7.63;;;2.90;;
19191;SDS011;9728;48.194;16.346;2023-09-30T14:34:56;5.20;;;2.60;;
19191;SDS011;9728;48.194;16.346;2023-09-30T14:40:01;7.03;;;2.83;;
19191;SDS011;9728;48.194;16.346;2023-09-30T14:45:07;6.50;;;3.00;;
19191;SDS011;9728;48.194;16.346;2023-09-30T14:50:12;7.00;;;2.95;;
19191;SDS011;9728;48.194;16.346;2023-09-30T14:55:17;6.05;;;2.42;;
19191;SDS011;9728;48.194;16.346;2023-09-30T15:00:21;7.60;;;2.88;;
19191;SDS011;9728;48.194;16.346;2023-09-30T15:05:26;5.95;;;2.45;;
19191;SDS011;9728;48.194;16.346;2023-09-30T15:10:33;4.20;;;2.15;;
19191;SDS011;9728;48.194;16.346;2023-09-30T15:15:38;4.82;;;2.42;;
19191;SDS011;9728;48.194;16.346;2023-09-30T15:20:42;4.68;;;2.00;;
19191;SDS011;9728;48.194;16.346;2023-09-30T15:25:48;5.75;;;2.33;;
19191;SDS011;9728;48.194;16.346;2023-09-30T15:30:51;4.18;;;1.80;;
19191;SDS011;9728;48.194;16.346;2023-09-30T15:35:54;3.28;;;1.73;;
19191;SDS011;9728;48.194;16.346;2023-09-30T15:40:59;3.67;;;1.95;;
19191;SDS011;9728;48.194;16.346;2023-09-30T15:46:05;3.47;;;1.75;;
19191;SDS011;9728;48.194;16.346;2023-09-30T15:51:10;3.03;;;1.42;;
19191;SDS011;9728;48.194;16.346;2023-09-30T15:56:15;2.80;;;1.50;;
19191;SDS011;9728;48.194;16.346;2023-09-30T16:01:19;5.05;;;1.50;;
19191;SDS011;9728;48.194;16.346;2023-09-30T16:06:22;3.80;;;1.40;;
19191;SDS011;9728;48.194;16.346;2023-09-30T16:11:27;3.83;;;1.13;;
19191;SDS011;9728;48.194;16.346;2023-09-30T16:16:31;1.38;;;1.10;;
19191;SDS011;9728;48.194;16.346;2023-09-30T16:21:35;2.88;;;1.40;;
19191;SDS011;9728;48.194;16.346;2023-09-30T16:26:40;2.50;;;1.00;;
19191;SDS011;9728;48.194;16.346;2023-09-30T16:31:44;1.70;;;0.98;;
19191;SDS011;9728;48.194;16.346;2023-09-30T16:36:48;1.73;;;1.00;;
19191;SDS011;9728;48.194;16.346;2023-09-30T16:41:53;1.67;;;0.95;;
19191;SDS011;9728;48.194;16.346;2023-09-30T16:46:56;1.25;;;0.85;;
19191;SDS011;9728;48.194;16.346;2023-09-30T16:52:01;2.33;;;0.95;;
19191;SDS011;9728;48.194;16.346;2023-09-30T16:57:08;2.03;;;0.82;;
19191;SDS011;9728;48.194;16.346;2023-09-30T17:02:14;1.20;;;0.90;;
19191;SDS011;9728;48.194;16.346;2023-09-30T17:07:19;2.08;;;0.88;;
19191;SDS011;9728;48.194;16.346;2023-09-30T17:12:26;1.42;;;0.90;;
19191;SDS011;9728;48.194;16.346;2023-09-30T17:17:29;1.30;;;0.80;;
19191;SDS011;9728;48.194;16.346;2023-09-30T17:22:34;1.33;;;0.98;;
19191;SDS011;9728;48.194;16.346;2023-09-30T17:27:39;1.25;;;0.85;;
19191;SDS011;9728;48.194;16.346;2023-09-30T17:32:43;2.55;;;1.35;;
19191;SDS011;9728;48.194;16.346;2023-09-30T17:37:48;2.22;;;0.90;;
19191;SDS011;9728;48.194;16.346;2023-09-30T17:42:54;1.88;;;1.08;;
19191;SDS011;9728;48.194;16.346;2023-09-30T17:47:58;1.70;;;1.10;;
19191;SDS011;9728;48.194;16.346;2023-09-30T17:53:03;1.67;;;0.88;;
19191;SDS011;9728;48.194;16.346;2023-09-30T17:58:09;1.52;;;1.05;;
19191;SDS011;9728;48.194;16.346;2023-09-30T18:03:14;2.28;;;1.20;;
19191;SDS011;9728;48.194;16.346;2023-09-30T18:08:19;2.53;;;1.10;;
19191;SDS011;9728;48.194;16.346;2023-09-30T18:13:24;2.38;;;1.17;;
19191;SDS011;9728;48.194;16.346;2023-09-30T18:18:29;2.85;;;1.20;;
19191;SDS011;9728;48.194;16.346;2023-09-30T18:23:38;1.88;;;1.00;;
19191;SDS011;9728;48.194;16.346;2023-09-30T18:28:45;1.90;;;1.10;;
19191;SDS011;9728;48.194;16.346;2023-09-30T18:33:50;2.00;;;1.17;;
19191;SDS011;9728;48.194;16.346;2023-09-30T18:38:54;1.73;;;1.20;;
19191;SDS011;9728;48.194;16.346;2023-09-30T18:44:10;1.65;;;1.05;;
19191;SDS011;9728;48.194;16.346;2023-09-30T18:49:15;2.90;;;1.35;;
19191;SDS011;9728;48.194;16.346;2023-09-30T18:54:20;2.38;;;1.33;;
19191;SDS011;9728;48.194;16.346;2023-09-30T18:59:27;2.70;;;1.35;;
19191;SDS011;9728;48.194;16.346;2023-09-30T19:04:32;1.95;;;1.10;;
19191;SDS011;9728;48.194;16.346;2023-09-30T19:09:41;1.77;;;1.20;;
19191;SDS011;9728;48.194;16.346;2023-09-30T19:14:47;2.60;;;1.50;;
19191;SDS011;9728;48.194;16.346;2023-09-30T19:19:52;3.05;;;1.23;;
19191;SDS011;9728;48.194;16.346;2023-09-30T19:24:56;2.85;;;1.48;;
19191;SDS011;9728;48.194;16.346;2023-09-30T19:30:03;2.58;;;1.30;;
19191;SDS011;9728;48.194;16.346;2023-09-30T19:35:09;2.88;;;1.30;;
19191;SDS011;9728;48.194;16.346;2023-09-30T19:40:15;2.60;;;1.50;;
19191;SDS011;9728;48.194;16.346;2023-09-30T19:45:21;3.20;;;1.38;;
19191;SDS011;9728;48.194;16.346;2023-09-30T19:50:25;2.38;;;1.30;;
19191;SDS011;9728;48.194;16.346;2023-09-30T19:55:31;1.40;;;1.23;;
19191;SDS011;9728;48.194;16.346;2023-09-30T20:00:37;1.80;;;1.20;;
19191;SDS011;9728;48.194;16.346;2023-09-30T20:05:42;2.30;;;1.10;;
19191;SDS011;9728;48.194;16.346;2023-09-30T20:10:45;2.70;;;1.10;;
19191;SDS011;9728;48.194;16.346;2023-09-30T20:15:50;8.95;;;2.13;;
19191;SDS011;9728;48.194;16.346;2023-09-30T20:20:54;4.35;;;1.65;;
19191;SDS011;9728;48.194;16.346;2023-09-30T20:25:58;3.05;;;1.92;;
19191;SDS011;9728;48.194;16.346;2023-09-30T20:31:04;3.83;;;1.55;;
19191;SDS011;9728;48.194;16.346;2023-09-30T20:36:08;3.30;;;2.08;;
19191;SDS011;9728;48.194;16.346;2023-09-30T20:41:11;3.15;;;1.70;;
19191;SDS011;9728;48.194;16.346;2023-09-30T20:46:16;3.80;;;1.98;;
19191;SDS011;9728;48.194;16.346;2023-09-30T20:51:21;4.60;;;2.67;;
19191;SDS011;9728;48.194;16.346;2023-09-30T20:56:25;5.53;;;2.70;;
19191;SDS011;9728;48.194;16.346;2023-09-30T21:01:30;3.05;;;1.60;;
19191;SDS011;9728;48.194;16.346;2023-09-30T21:06:34;2.80;;;1.50;;
19191;SDS011;9728;48.194;16.346;2023-09-30T21:11:38;3.03;;;1.40;;
19191;SDS011;9728;48.194;16.346;2023-09-30T21:16:43;8.48;;;4.20;;
19191;SDS011;9728;48.194;16.346;2023-09-30T21:21:46;3.60;;;2.00;;
19191;SDS011;9728;48.194;16.346;2023-09-30T21:26:51;2.88;;;1.60;;
19191;SDS011;9728;48.194;16.346;2023-09-30T21:31:56;1.83;;;1.00;;
19191;SDS011;9728;48.194;16.346;2023-09-30T21:37:00;2.17;;;1.05;;
19191;SDS011;9728;48.194;16.346;2023-09-30T21:42:03;2.63;;;1.10;;
19191;SDS011;9728;48.194;16.346;2023-09-30T21:47:09;1.95;;;1.08;;
19191;SDS011;9728;48.194;16.346;2023-09-30T21:52:12;3.63;;;1.23;;
19191;SDS011;9728;48.194;16.346;2023-09-30T21:57:16;1.92;;;1.30;;
19191;SDS011;9728;48.194;16.346;2023-09-30T22:02:21;1.17;;;0.90;;
19191;SDS011;9728;48.194;16.346;2023-09-30T22:07:25;3.42;;;1.60;;
19191;SDS011;9728;48.194;16.346;2023-09-30T22:12:33;2.85;;;1.35;;
19191;SDS011;9728;48.194;16.346;2023-09-30T22:17:38;2.08;;;0.95;;
19191;SDS011;9728;48.194;16.346;2023-09-30T22:22:41;2.15;;;1.00;;
19191;SDS011;9728;48.194;16.346;2023-09-30T22:27:45;1.90;;;1.13;;
19191;SDS011;9728;48.194;16.346;2023-09-30T22:32:50;2.33;;;1.00;;
19191;SDS011;9728;48.194;16.346;2023-09-30T22:37:55;3.10;;;1.50;;
19191;SDS011;9728;48.194;16.346;2023-09-30T22:42:58;1.80;;;0.90;;
19191;SDS011;9728;48.194;16.346;2023-09-30T22:48:04;3.63;;;1.00;;
19191;SDS011;9728;48.194;16.346;2023-09-30T22:53:08;3.15;;;1.23;;
19191;SDS011;9728;48.194;16.346;2023-09-30T22:58:12;2.60;;;1.27;;
19191;SDS011;9728;48.194;16.346;2023-09-30T23:03:18;3.22;;;1.30;;
19191;SDS011;9728;48.194;16.346;2023-09-30T23:08:21;1.75;;;1.25;;
19191;SDS011;9728;48.194;16.346;2023-09-30T23:13:25;2.22;;;1.10;;
19191;SDS011;9728;48.194;16.346;2023-09-30T23:18:30;1.98;;;0.95;;
19191;SDS011;9728;48.194;16.346;2023-09-30T23:23:34;1.25;;;0.88;;
19191;SDS011;9728;48.194;16.346;2023-09-30T23:28:39;1.65;;;1.08;;
19191;SDS011;9728;48.194;16.346;2023-09-30T23:33:43;3.28;;;1.27;;
19191;SDS011;9728;48.194;16.346;2023-09-30T23:38:50;1.92;;;1.05;;
19191;SDS011;9728;48.194;16.346;2023-09-30T23:43:55;1.75;;;1.13;;
19191;SDS011;9728;48.194;16.346;2023-09-30T23:49:02;2.45;;;1.10;;
19191;SDS011;9728;48.194;16.346;2023-09-30T23:54:08;1.15;;;0.77;;
19191;SDS011;9728;48.194;16.346;2023-09-30T23:59:13;1.67;;;0.93;;
